Time;durP1;ratioP1;P1;durP2;ratioP2;P2;SDS_P1;SDS_P2;PMS_P1;PMS_P2;Temp;Humidity;BMP_temperature;BMP_pressure;BME280_temperature;BME280_humidity;BME280_pressure;Samples;Min_cycle;Max_cycle;Signal;HPM_P1;HPM_P2
2022/11/18 00:01:50;;;;;;;43.97;26.90;;;;;;;;;;5033821;28;20021;-77
2022/11/18 00:04:16;;;;;;;44.38;25.55;;;;;;;;;;5035371;28;20021;-78
2022/11/18 00:06:42;;;;;;;43.67;26.83;;;;;;;;;;5035502;28;20040;-77
2022/11/18 00:09:08;;;;;;;44.33;26.50;;;;;;;;;;5034917;28;20060;-78
2022/11/18 00:14:23;;;;;;;41.25;25.85;;;;;;;;;;5037028;28;20110;-77
2022/11/18 00:16:53;;;;;;;43.15;27.13;;;;;;;;;;5037466;28;20527;-76
2022/11/18 00:19:21;;;;;;;45.38;27.80;;;;;;;;;;5037908;28;20029;-77
2022/11/18 00:21:47;;;;;;;43.38;26.63;;;;;;;;;;5046483;28;20021;-77
2022/11/18 00:24:13;;;;;;;42.63;26.98;;;;;;;;;;5055364;28;20009;-76
2022/11/18 00:26:39;;;;;;;46.85;27.10;;;;;;;;;;5047037;28;20108;-77
2022/11/18 00:29:05;;;;;;;44.13;26.77;;;;;;;;;;5041705;28;20033;-76
2022/11/18 00:31:31;;;;;;;42.97;27.55;;;;;;;;;;5053326;28;20009;-77
2022/11/18 00:33:57;;;;;;;47.83;28.60;;;;;;;;;;5048720;28;20444;-78
2022/11/18 00:36:23;;;;;;;47.45;27.83;;;;;;;;;;5038996;28;20045;-78
2022/11/18 00:38:49;;;;;;;47.70;27.90;;;;;;;;;;5037752;28;20036;-78
2022/11/18 00:41:15;;;;;;;45.03;27.55;;;;;;;;;;5039248;28;20040;-76
2022/11/18 00:43:41;;;;;;;48.20;28.00;;;;;;;;;;5036648;28;20289;-77
2022/11/18 00:46:09;;;;;;;45.33;27.08;;;;;;;;;;5037270;28;20030;-77
2022/11/18 00:48:35;;;;;;;45.00;28.45;;;;;;;;;;5037512;28;20386;-77
2022/11/18 00:51:09;;;;;;;48.03;29.17;;;;;;;;;;5035618;28;20033;-77
2022/11/18 00:53:35;;;;;;;54.67;31.52;;;;;;;;;;5035585;28;20052;-76
2022/11/18 00:56:01;;;;;;;49.17;28.67;;;;;;;;;;5033418;28;20487;-77
2022/11/18 00:58:28;;;;;;;48.60;29.58;;;;;;;;;;5034454;28;20032;-76
2022/11/18 01:00:55;;;;;;;45.92;29.08;;;;;;;;;;5035093;28;20109;-77
2022/11/18 01:03:21;;;;;;;47.35;28.38;;;;;;;;;;5034881;28;20021;-76
2022/11/18 01:05:47;;;;;;;46.92;28.77;;;;;;;;;;5035243;28;20032;-76
2022/11/18 01:08:13;;;;;;;50.78;30.38;;;;;;;;;;5055303;22;20034;-75
2022/11/18 01:10:40;;;;;;;48.45;27.25;;;;;;;;;;5032220;28;20038;-76
2022/11/18 01:13:19;;;;;;;47.90;29.83;;;;;;;;;;5032385;28;20442;-75
2022/11/18 01:15:49;;;;;;;48.88;29.05;;;;;;;;;;5033306;28;20367;-75
2022/11/18 01:18:15;;;;;;;51.90;29.83;;;;;;;;;;5034488;28;20021;-76
2022/11/18 01:20:41;;;;;;;47.75;29.98;;;;;;;;;;5034640;28;20030;-76
2022/11/18 01:23:07;;;;;;;48.67;30.10;;;;;;;;;;5032257;28;20032;-74
2022/11/18 01:25:35;;;;;;;49.53;29.75;;;;;;;;;;5032178;28;20022;-75
2022/11/18 01:28:01;;;;;;;46.22;29.52;;;;;;;;;;5031894;28;20104;-75
2022/11/18 01:30:27;;;;;;;50.03;30.45;;;;;;;;;;5031632;28;20083;-76
2022/11/18 01:32:53;;;;;;;49.55;30.27;;;;;;;;;;5031825;28;20037;-75
2022/11/18 01:35:19;;;;;;;48.75;31.33;;;;;;;;;;5032140;28;20375;-70
2022/11/18 01:37:45;;;;;;;48.28;30.10;;;;;;;;;;5035887;28;20046;-74
2022/11/18 01:40:11;;;;;;;52.13;32.70;;;;;;;;;;5042211;28;20025;-75
2022/11/18 01:42:37;;;;;;;50.63;31.48;;;;;;;;;;5046200;28;20084;-75
2022/11/18 01:45:22;;;;;;;50.78;31.73;;;;;;;;;;5052164;28;20017;-71
2022/11/18 01:47:48;;;;;;;;;;;;;;;;;;5049334;28;20029;-75
2022/11/18 01:50:15;;;;;;;52.10;31.67;;;;;;;;;;5031663;28;19905;-75
2022/11/18 01:52:42;;;;;;;53.15;31.60;;;;;;;;;;5031518;28;20029;-74
2022/11/18 01:55:13;;;;;;;52.67;31.95;;;;;;;;;;5031510;28;20040;-74
2022/11/18 01:57:40;;;;;;;53.67;33.13;;;;;;;;;;5031406;28;20021;-75
2022/11/18 02:00:07;;;;;;;51.80;32.85;;;;;;;;;;5031571;28;20026;-75
2022/11/18 02:02:35;;;;;;;53.38;32.33;;;;;;;;;;5032328;28;20375;-75
2022/11/18 02:05:02;;;;;;;51.80;31.90;;;;;;;;;;5035186;28;20544;-75
2022/11/18 02:07:28;;;;;;;54.53;32.25;;;;;;;;;;5035008;28;20033;-74
2022/11/18 02:09:55;;;;;;;52.85;33.10;;;;;;;;;;5034898;28;20038;-74
2022/11/18 02:12:22;;;;;;;60.13;33.88;;;;;;;;;;5035717;28;20470;-75
2022/11/18 02:14:48;;;;;;;53.25;33.47;;;;;;;;;;5035469;28;20021;-75
2022/11/18 02:17:19;;;;;;;49.33;32.33;;;;;;;;;;5035066;28;20040;-73
2022/11/18 02:19:52;;;;;;;52.22;33.13;;;;;;;;;;5035126;28;20175;-74
2022/11/18 02:22:42;;;;;;;52.40;33.57;;;;;;;;;;5034812;28;20018;-74
2022/11/18 02:25:15;;;;;;;55.10;34.10;;;;;;;;;;5034805;28;20256;-74
2022/11/18 02:27:40;;;;;;;54.63;34.13;;;;;;;;;;5046770;28;20081;-74
2022/11/18 02:30:15;;;;;;;55.42;34.58;;;;;;;;;;5043249;28;20037;-74
2022/11/18 02:32:41;;;;;;;;;;;;;;;;;;5035242;28;20490;-75
2022/11/18 02:35:15;;;;;;;52.28;32.28;;;;;;;;;;5034464;28;19909;-76
2022/11/18 02:37:41;;;;;;;;;;;;;;;;;;5034982;28;20048;-73
2022/11/18 02:40:21;;;;;;;50.03;30.98;;;;;;;;;;5034535;28;19905;-76
2022/11/18 02:42:50;;;;;;;50.50;31.92;;;;;;;;;;5032967;28;20026;-74
2022/11/18 02:45:17;;;;;;;50.65;31.52;;;;;;;;;;5034240;28;20107;-71
2022/11/18 02:47:45;;;;;;;49.67;31.70;;;;;;;;;;5034327;28;20026;-76
2022/11/18 02:50:12;;;;;;;47.40;31.45;;;;;;;;;;5034016;28;20025;-75
2022/11/18 02:52:38;;;;;;;53.15;30.42;;;;;;;;;;5034386;28;20343;-77
2022/11/18 02:55:07;;;;;;;46.08;30.13;;;;;;;;;;5033201;28;20075;-75
2022/11/18 02:57:33;;;;;;;51.20;31.20;;;;;;;;;;5033875;28;20441;-75
2022/11/18 02:59:59;;;;;;;48.13;30.27;;;;;;;;;;5034095;28;20092;-75
2022/11/18 03:02:25;;;;;;;51.45;31.10;;;;;;;;;;5034072;28;20626;-77
2022/11/18 03:04:54;;;;;;;47.33;30.73;;;;;;;;;;5032582;28;20077;-75
2022/11/18 03:07:24;;;;;;;48.17;31.02;;;;;;;;;;5033887;28;20461;-76
2022/11/18 03:09:51;;;;;;;46.55;30.02;;;;;;;;;;5033584;28;20029;-75
2022/11/18 03:12:32;;;;;;;41.25;28.10;;;;;;;;;;5033834;28;20478;-74
2022/11/18 03:15:04;;;;;;;45.75;28.80;;;;;;;;;;5034048;28;20048;-75
2022/11/18 03:17:41;;;;;;;41.28;28.25;;;;;;;;;;5033576;28;20381;-75
2022/11/18 03:20:10;;;;;;;48.72;29.90;;;;;;;;;;5033552;28;20033;-76
2022/11/18 03:22:53;;;;;;;47.42;28.48;;;;;;;;;;5033573;28;20363;-75
2022/11/18 03:25:21;;;;;;;42.53;28.15;;;;;;;;;;5033581;28;20021;-72
2022/11/18 03:27:59;;;;;;;45.63;28.05;;;;;;;;;;5033643;28;20029;-73
2022/11/18 03:30:25;;;;;;;47.08;28.45;;;;;;;;;;5033681;28;20045;-79
2022/11/18 03:33:04;;;;;;;43.83;28.27;;;;;;;;;;5033724;28;20043;-74
2022/11/18 03:35:32;;;;;;;43.97;28.58;;;;;;;;;;5033230;28;20022;-74
2022/11/18 03:38:04;;;;;;;40.35;27.05;;;;;;;;;;5034177;28;20374;-74
2022/11/18 03:40:31;;;;;;;44.05;27.60;;;;;;;;;;5034182;28;20082;-75
2022/11/18 03:43:02;;;;;;;42.42;27.88;;;;;;;;;;5029667;28;20030;-75
2022/11/18 03:45:34;;;;;;;44.10;27.35;;;;;;;;;;5042302;28;20022;-74
2022/11/18 03:48:04;;;;;;;41.50;26.55;;;;;;;;;;5041924;28;20021;-73
2022/11/18 03:50:33;;;;;;;47.63;28.35;;;;;;;;;;5035092;28;20025;-72
2022/11/18 03:52:59;;;;;;;41.80;26.30;;;;;;;;;;5033764;28;20025;-73
2022/11/18 03:55:29;;;;;;;41.63;27.08;;;;;;;;;;5034239;28;20030;-72
2022/11/18 03:58:01;;;;;;;39.75;27.05;;;;;;;;;;5034636;28;20386;-72
2022/11/18 04:00:28;;;;;;;41.80;27.65;;;;;;;;;;5038993;28;20033;-74
2022/11/18 04:02:54;;;;;;;42.88;26.63;;;;;;;;;;5039598;28;20040;-73
2022/11/18 04:05:20;;;;;;;44.40;27.92;;;;;;;;;;5042713;28;20021;-72
2022/11/18 04:07:53;;;;;;;40.35;25.55;;;;;;;;;;5048184;28;20029;-72
2022/11/18 04:10:18;;;;;;;41.70;27.08;;;;;;;;;;5035449;28;20037;-74
2022/11/18 04:12:48;;;;;;;42.60;26.77;;;;;;;;;;5031136;28;20029;-73
2022/11/18 04:15:14;;;;;;;39.85;26.42;;;;;;;;;;5032772;28;20025;-75
2022/11/18 04:17:41;;;;;;;42.35;27.35;;;;;;;;;;5032786;28;20031;-74
2022/11/18 04:20:12;;;;;;;47.15;28.60;;;;;;;;;;5032881;28;20378;-75
2022/11/18 04:22:38;;;;;;;43.20;27.25;;;;;;;;;;5031495;28;20021;-71
2022/11/18 04:25:04;;;;;;;40.90;27.20;;;;;;;;;;5032818;28;20029;-72
2022/11/18 04:27:30;;;;;;;44.22;28.13;;;;;;;;;;5031807;28;20065;-73
2022/11/18 04:29:56;;;;;;;46.60;28.88;;;;;;;;;;5032446;28;20025;-75
2022/11/18 04:32:22;;;;;;;43.55;28.63;;;;;;;;;;5032839;28;20030;-74
2022/11/18 04:34:48;;;;;;;46.30;29.38;;;;;;;;;;5031778;28;20040;-75
2022/11/18 04:37:14;;;;;;;46.63;29.17;;;;;;;;;;5032852;28;20033;-75
2022/11/18 04:39:41;;;;;;;51.63;30.45;;;;;;;;;;5033395;28;20105;-75
2022/11/18 04:42:07;;;;;;;42.88;28.52;;;;;;;;;;5033215;28;20036;-73
2022/11/18 04:44:33;;;;;;;46.75;29.40;;;;;;;;;;5031716;28;20022;-75
2022/11/18 04:47:01;;;;;;;46.45;29.75;;;;;;;;;;5032051;28;20510;-75
2022/11/18 04:49:27;;;;;;;45.55;29.15;;;;;;;;;;5031373;28;20037;-73
2022/11/18 04:51:53;;;;;;;47.88;30.42;;;;;;;;;;5031607;28;20030;-74
2022/11/18 04:54:20;;;;;;;47.35;30.60;;;;;;;;;;5031527;28;20049;-75
2022/11/18 04:56:46;;;;;;;57.25;31.02;;;;;;;;;;5032775;28;20026;-74
2022/11/18 04:59:13;;;;;;;52.20;29.90;;;;;;;;;;5035280;28;20018;-74
2022/11/18 05:01:39;;;;;;;51.88;30.25;;;;;;;;;;5041323;28;20028;-74
2022/11/18 05:04:05;;;;;;;46.72;30.15;;;;;;;;;;5035970;28;20034;-75
2022/11/18 05:06:32;;;;;;;49.90;31.83;;;;;;;;;;5032168;28;20060;-74
2022/11/18 05:08:58;;;;;;;48.33;30.98;;;;;;;;;;5032011;28;20478;-74
2022/11/18 05:14:09;;;;;;;49.45;31.40;;;;;;;;;;5032226;28;20410;-74
2022/11/18 05:16:35;;;;;;;47.90;30.70;;;;;;;;;;5031827;28;20025;-75
2022/11/18 05:19:02;;;;;;;48.85;32.35;;;;;;;;;;5032431;28;20543;-75
2022/11/18 05:21:27;;;;;;;50.75;31.65;;;;;;;;;;5032093;28;20104;-76
2022/11/18 05:23:53;;;;;;;50.00;32.90;;;;;;;;;;5032066;28;20053;-74
2022/11/18 05:26:19;;;;;;;50.13;32.03;;;;;;;;;;5031912;28;20114;-74
2022/11/18 05:28:45;;;;;;;51.13;33.38;;;;;;;;;;5031114;28;20398;-73
2022/11/18 05:31:16;;;;;;;50.20;32.45;;;;;;;;;;5032900;28;20025;-76
2022/11/18 05:33:43;;;;;;;50.92;33.55;;;;;;;;;;5032548;28;20029;-75
2022/11/18 05:36:11;;;;;;;53.60;33.10;;;;;;;;;;5032435;28;20036;-76
2022/11/18 05:38:37;;;;;;;54.15;33.33;;;;;;;;;;5034629;28;20029;-74
2022/11/18 05:41:03;;;;;;;49.40;33.15;;;;;;;;;;5036802;28;20025;-75
2022/11/18 05:43:30;;;;;;;52.10;33.38;;;;;;;;;;5035830;28;20116;-75
2022/11/18 05:45:56;;;;;;;55.58;33.70;;;;;;;;;;5035723;28;20021;-77
2022/11/18 05:48:22;;;;;;;51.60;33.35;;;;;;;;;;5038127;28;20025;-74
2022/11/18 05:50:49;;;;;;;49.28;33.10;;;;;;;;;;5037863;28;20113;-76
2022/11/18 05:53:15;;;;;;;51.58;33.92;;;;;;;;;;5043913;28;20481;-74
2022/11/18 05:55:48;;;;;;;55.90;34.35;;;;;;;;;;5036004;28;20025;-76
2022/11/18 05:58:14;;;;;;;53.97;33.85;;;;;;;;;;5036424;28;20029;-74
2022/11/18 06:00:40;;;;;;;57.10;36.42;;;;;;;;;;5037767;28;20033;-74
2022/11/18 06:03:09;;;;;;;58.22;34.22;;;;;;;;;;5039686;28;20478;-75
2022/11/18 06:05:35;;;;;;;53.60;34.03;;;;;;;;;;5035273;28;20036;-72
2022/11/18 06:08:01;;;;;;;57.03;34.70;;;;;;;;;;5035380;28;20108;-74
2022/11/18 06:10:30;;;;;;;54.00;34.97;;;;;;;;;;5035533;28;20124;-73
2022/11/18 06:12:58;;;;;;;54.15;34.33;;;;;;;;;;5035274;28;20487;-74
2022/11/18 06:15:27;;;;;;;55.47;34.25;;;;;;;;;;5034128;28;20037;-75
2022/11/18 06:17:56;;;;;;;51.28;33.55;;;;;;;;;;5036570;28;20029;-75
2022/11/18 06:20:22;;;;;;;53.38;33.03;;;;;;;;;;5035731;28;20025;-75
2022/11/18 06:22:48;;;;;;;51.00;33.25;;;;;;;;;;5036144;28;20032;-75
2022/11/18 06:25:14;;;;;;;57.83;34.75;;;;;;;;;;5036015;28;20053;-75
2022/11/18 06:27:41;;;;;;;54.33;32.83;;;;;;;;;;5035691;28;20029;-76
2022/11/18 06:30:07;;;;;;;59.75;34.42;;;;;;;;;;5035922;28;20482;-73
2022/11/18 06:32:33;;;;;;;53.88;36.00;;;;;;;;;;5037062;28;20089;-74
2022/11/18 06:34:59;;;;;;;56.22;35.63;;;;;;;;;;5036552;28;20431;-76
2022/11/18 06:37:25;;;;;;;56.17;36.17;;;;;;;;;;5036673;28;20033;-76
2022/11/18 06:39:51;;;;;;;53.42;35.15;;;;;;;;;;5035203;28;20021;-77
2022/11/18 06:45:02;;;;;;;;;;;;;;;;;;5036242;28;20437;-73
2022/11/18 06:47:28;;;;;;;59.13;35.08;;;;;;;;;;5035631;28;19913;-78
2022/11/18 06:49:54;;;;;;;57.92;35.58;;;;;;;;;;5040390;28;20037;-75
2022/11/18 06:52:21;;;;;;;59.78;35.90;;;;;;;;;;5047073;28;20029;-77
2022/11/18 06:54:47;;;;;;;59.13;36.45;;;;;;;;;;5040792;28;20033;-75
2022/11/18 06:57:12;;;;;;;58.65;36.58;;;;;;;;;;5035667;28;20040;-77
2022/11/18 06:59:38;;;;;;;59.28;37.83;;;;;;;;;;5035866;28;20119;-77
2022/11/18 07:02:04;;;;;;;61.13;37.25;;;;;;;;;;5035733;28;20025;-72
2022/11/18 07:04:33;;;;;;;59.50;36.97;;;;;;;;;;5035406;28;20029;-74
2022/11/18 07:06:59;;;;;;;63.78;36.95;;;;;;;;;;5034714;28;20549;-76
2022/11/18 07:09:25;;;;;;;59.88;35.13;;;;;;;;;;5036196;28;20075;-70
2022/11/18 07:11:51;;;;;;;67.78;36.22;;;;;;;;;;5034445;28;20121;-71
2022/11/18 07:14:17;;;;;;;59.80;36.25;;;;;;;;;;5034715;28;20091;-71
2022/11/18 07:16:43;;;;;;;56.72;34.70;;;;;;;;;;5034520;28;20034;-72
2022/11/18 07:19:10;;;;;;;63.70;37.17;;;;;;;;;;5035681;28;20449;-74
2022/11/18 07:21:36;;;;;;;61.55;37.63;;;;;;;;;;5036919;28;20018;-72
2022/11/18 07:24:04;;;;;;;62.33;35.25;;;;;;;;;;5036656;28;20029;-73
2022/11/18 07:26:30;;;;;;;60.58;34.53;;;;;;;;;;5036542;28;20025;-71
2022/11/18 07:28:56;;;;;;;55.42;34.67;;;;;;;;;;5038416;28;20036;-72
2022/11/18 07:31:22;;;;;;;56.00;34.15;;;;;;;;;;5040561;28;20459;-75
2022/11/18 07:33:48;;;;;;;55.20;33.85;;;;;;;;;;5041444;28;20017;-72
2022/11/18 07:36:19;;;;;;;50.65;31.67;;;;;;;;;;5045486;28;20037;-73
2022/11/18 07:38:45;;;;;;;57.95;33.38;;;;;;;;;;5035849;28;20026;-74
2022/11/18 07:41:11;;;;;;;53.65;32.65;;;;;;;;;;5035493;28;20105;-80
2022/11/18 07:43:37;;;;;;;52.35;32.97;;;;;;;;;;5032840;28;20053;-72
2022/11/18 07:46:09;;;;;;;52.80;31.75;;;;;;;;;;5034696;28;20031;-76
2022/11/18 07:48:35;;;;;;;49.45;31.48;;;;;;;;;;5034779;28;20459;-73
2022/11/18 07:51:01;;;;;;;48.97;30.77;;;;;;;;;;5034854;28;20422;-74
2022/11/18 07:53:29;;;;;;;50.42;30.45;;;;;;;;;;5035436;28;20032;-72
2022/11/18 07:55:55;;;;;;;49.83;29.90;;;;;;;;;;5037204;28;20035;-75
2022/11/18 07:58:21;;;;;;;47.25;30.17;;;;;;;;;;5039307;28;20018;-73
2022/11/18 08:00:47;;;;;;;58.30;30.00;;;;;;;;;;5037453;28;20283;-72
2022/11/18 08:03:13;;;;;;;51.90;29.02;;;;;;;;;;5041325;28;20028;-74
2022/11/18 08:05:39;;;;;;;49.40;30.02;;;;;;;;;;5043647;28;20057;-72
2022/11/18 08:08:05;;;;;;;48.92;27.92;;;;;;;;;;5042859;28;20030;-73
2022/11/18 08:10:31;;;;;;;44.30;28.60;;;;;;;;;;5041912;28;20037;-73
2022/11/18 08:12:57;;;;;;;62.72;33.92;;;;;;;;;;5045148;28;20584;-77
2022/11/18 08:15:24;;;;;;;46.60;27.92;;;;;;;;;;5056679;28;20041;-79
2022/11/18 08:17:50;;;;;;;44.20;27.33;;;;;;;;;;5054730;28;20010;-74
2022/11/18 08:20:16;;;;;;;47.15;27.90;;;;;;;;;;5056695;28;20017;-74
2022/11/18 08:22:42;;;;;;;47.67;28.63;;;;;;;;;;5056277;28;20244;-75
2022/11/18 08:25:08;;;;;;;42.13;27.00;;;;;;;;;;5057223;28;20021;-78
2022/11/18 08:27:34;;;;;;;42.13;25.58;;;;;;;;;;5056787;28;20034;-76
2022/11/18 08:30:00;;;;;;;45.75;26.95;;;;;;;;;;5055087;28;20085;-75
2022/11/18 08:32:26;;;;;;;45.92;27.58;;;;;;;;;;5039993;28;20036;-72
2022/11/18 08:34:52;;;;;;;44.50;27.05;;;;;;;;;;5033722;28;20044;-72
2022/11/18 08:37:18;;;;;;;39.25;25.48;;;;;;;;;;5034686;28;20089;-73
2022/11/18 08:39:44;;;;;;;40.03;25.98;;;;;;;;;;5016851;28;20021;-74
2022/11/18 08:42:10;;;;;;;43.70;25.80;;;;;;;;;;5033739;28;20401;-70
2022/11/18 08:44:36;;;;;;;39.70;25.33;;;;;;;;;;5033788;28;20032;-77
2022/11/18 08:47:02;;;;;;;38.92;25.17;;;;;;;;;;5035091;28;20030;-73
2022/11/18 08:49:28;;;;;;;38.45;24.33;;;;;;;;;;5041937;28;20053;-72
2022/11/18 08:51:54;;;;;;;37.30;23.77;;;;;;;;;;5040734;28;20052;-70
2022/11/18 08:54:20;;;;;;;36.20;23.33;;;;;;;;;;5033422;28;20052;-71
2022/11/18 08:56:49;;;;;;;39.97;24.30;;;;;;;;;;5037448;28;20109;-72
2022/11/18 08:59:15;;;;;;;34.28;23.05;;;;;;;;;;5033365;28;20017;-73
2022/11/18 09:01:42;;;;;;;39.13;23.38;;;;;;;;;;5033375;28;20021;-72
2022/11/18 09:04:08;;;;;;;42.95;23.38;;;;;;;;;;5033170;28;20363;-73
2022/11/18 09:06:34;;;;;;;36.17;22.77;;;;;;;;;;5032512;28;20029;-73
2022/11/18 09:09:00;;;;;;;37.75;22.63;;;;;;;;;;5032725;28;20042;-72
2022/11/18 09:11:27;;;;;;;34.10;21.67;;;;;;;;;;5032815;28;20037;-74
2022/11/18 09:13:57;;;;;;;35.33;20.45;;;;;;;;;;5037978;28;20386;-73
2022/11/18 09:16:23;;;;;;;36.25;22.88;;;;;;;;;;5036524;28;20196;-71
2022/11/18 09:18:50;;;;;;;34.10;21.02;;;;;;;;;;5036900;28;20026;-72
2022/11/18 09:21:16;;;;;;;34.78;20.77;;;;;;;;;;5036649;28;20029;-74
2022/11/18 09:23:42;;;;;;;31.80;20.40;;;;;;;;;;5036964;28;20026;-73
2022/11/18 09:26:09;;;;;;;30.73;19.25;;;;;;;;;;5037364;28;20548;-72
2022/11/18 09:28:35;;;;;;;33.53;19.58;;;;;;;;;;5037107;28;20025;-75
2022/11/18 09:31:08;;;;;;;32.65;20.00;;;;;;;;;;5036400;28;20029;-74
2022/11/18 09:33:35;;;;;;;31.10;18.50;;;;;;;;;;5036385;28;20140;-74
2022/11/18 09:36:01;;;;;;;32.38;19.60;;;;;;;;;;5036588;28;20041;-71
2022/11/18 09:38:30;;;;;;;27.58;17.77;;;;;;;;;;5036550;28;20498;-71
2022/11/18 09:41:22;;;;;;;30.33;18.50;;;;;;;;;;5036424;28;20116;-73
2022/11/18 09:43:51;;;;;;;25.85;17.38;;;;;;;;;;5036643;28;20509;-72
2022/11/18 09:46:31;;;;;;;27.80;17.63;;;;;;;;;;5035931;28;20029;-73
2022/11/18 09:49:12;;;;;;;27.88;17.17;;;;;;;;;;5036187;28;20041;-72
2022/11/18 09:51:40;;;;;;;26.30;16.58;;;;;;;;;;5037186;28;20121;-75
2022/11/18 09:54:10;;;;;;;26.85;16.58;;;;;;;;;;5038398;28;20036;-72
2022/11/18 09:56:36;;;;;;;27.77;16.38;;;;;;;;;;5041331;28;20112;-74
2022/11/18 09:59:03;;;;;;;24.25;15.35;;;;;;;;;;5042596;28;20032;-72
2022/11/18 10:01:30;;;;;;;22.83;15.27;;;;;;;;;;5039134;28;20394;-72
2022/11/18 10:03:55;;;;;;;22.98;14.98;;;;;;;;;;5036093;28;20033;-72
2022/11/18 10:06:26;;;;;;;24.30;15.55;;;;;;;;;;5035349;28;20025;-72
2022/11/18 10:08:58;;;;;;;24.45;14.90;;;;;;;;;;5039865;28;20037;-74
2022/11/18 10:11:25;;;;;;;25.08;14.40;;;;;;;;;;5042350;28;20090;-71
2022/11/18 10:13:55;;;;;;;21.70;13.65;;;;;;;;;;5036541;28;20036;-71
2022/11/18 10:16:42;;;;;;;22.83;13.40;;;;;;;;;;5034724;28;20076;-74
2022/11/18 10:19:16;;;;;;;21.88;12.88;;;;;;;;;;5037239;28;20013;-73
2022/11/18 10:22:01;;;;;;;22.33;14.05;;;;;;;;;;5036024;28;20471;-72
2022/11/18 10:24:32;;;;;;;19.90;12.50;;;;;;;;;;5034527;28;20033;-71
2022/11/18 10:26:59;;;;;;;19.15;12.75;;;;;;;;;;5036813;28;20453;-71
2022/11/18 10:29:25;;;;;;;20.50;12.80;;;;;;;;;;5037466;28;20032;-71
2022/11/18 10:32:14;;;;;;;18.77;12.00;;;;;;;;;;5034189;28;20033;-72
2022/11/18 10:34:46;;;;;;;17.27;11.32;;;;;;;;;;5030331;28;20033;-71
2022/11/18 10:37:23;;;;;;;20.55;11.38;;;;;;;;;;5035456;28;20025;-73
2022/11/18 10:39:50;;;;;;;20.88;12.10;;;;;;;;;;5035916;28;20091;-71
2022/11/18 10:42:22;;;;;;;18.85;11.38;;;;;;;;;;5035219;28;20036;-72
2022/11/18 10:44:48;;;;;;;18.35;12.10;;;;;;;;;;5035323;28;20462;-72
2022/11/18 10:47:28;;;;;;;19.00;11.93;;;;;;;;;;5035078;28;20032;-73
2022/11/18 10:49:56;;;;;;;16.17;11.00;;;;;;;;;;5035318;28;20128;-73
2022/11/18 10:52:22;;;;;;;20.15;11.65;;;;;;;;;;5035563;28;20163;-72
2022/11/18 10:55:05;;;;;;;16.92;10.25;;;;;;;;;;5035430;28;20083;-75
2022/11/18 10:57:34;;;;;;;17.73;10.05;;;;;;;;;;5036036;28;20038;-74
2022/11/18 11:00:00;;;;;;;15.55;9.57;;;;;;;;;;5035488;28;20029;-71
2022/11/18 11:02:32;;;;;;;17.75;10.00;;;;;;;;;;5037008;28;20024;-72
2022/11/18 11:05:03;;;;;;;15.35;9.10;;;;;;;;;;5037736;28;20524;-72
2022/11/18 11:07:31;;;;;;;17.25;9.77;;;;;;;;;;5037121;28;20056;-72
2022/11/18 11:10:06;;;;;;;19.02;9.25;;;;;;;;;;5035674;28;20037;-72
2022/11/18 11:12:37;;;;;;;13.48;8.75;;;;;;;;;;5035498;28;20033;-70
2022/11/18 11:15:11;;;;;;;13.35;8.63;;;;;;;;;;5033390;28;20029;-72
2022/11/18 11:18:40;;;;;;;13.65;7.85;;;;;;;;;;5034516;28;20028;-72
2022/11/18 11:20:40;;;;;;;12.93;8.25;;;;;;;;;;5034079;28;20038;-72
2022/11/18 11:23:12;;;;;;;16.38;8.85;;;;;;;;;;5035170;28;20049;-73
2022/11/18 11:25:43;;;;;;;18.98;9.32;;;;;;;;;;5034402;28;20029;-71
2022/11/18 11:28:19;;;;;;;27.35;14.13;;;;;;;;;;5034515;28;20022;-74
2022/11/18 11:31:01;;;;;;;13.05;7.85;;;;;;;;;;5034405;28;20043;-72
2022/11/18 11:33:30;;;;;;;15.00;8.23;;;;;;;;;;5034429;28;20036;-74
2022/11/18 11:36:17;;;;;;;16.38;8.93;;;;;;;;;;5032976;28;20261;-71
2022/11/18 11:38:42;;;;;;;15.95;8.65;;;;;;;;;;5012784;28;20401;-70
2022/11/18 11:41:15;;;;;;;17.35;8.93;;;;;;;;;;5033909;28;20104;-72
2022/11/18 11:43:53;;;;;;;20.83;9.55;;;;;;;;;;5034098;28;20067;-71
2022/11/18 11:46:27;;;;;;;18.55;9.50;;;;;;;;;;5034533;28;20034;-72
2022/11/18 11:48:53;;;;;;;17.90;9.13;;;;;;;;;;5034525;28;20022;-71
2022/11/18 11:51:32;;;;;;;14.95;8.80;;;;;;;;;;5034521;28;20059;-69
2022/11/18 11:54:01;;;;;;;16.40;8.73;;;;;;;;;;5036089;28;20029;-73
2022/11/18 11:56:36;;;;;;;19.73;9.40;;;;;;;;;;5034141;28;20033;-72
2022/11/18 11:59:21;;;;;;;16.80;8.88;;;;;;;;;;5035233;28;20030;-74
2022/11/18 12:02:13;;;;;;;14.57;8.65;;;;;;;;;;5035465;28;20376;-75
2022/11/18 12:04:47;;;;;;;18.83;9.40;;;;;;;;;;5037370;28;20021;-73
2022/11/18 12:07:16;;;;;;;18.60;9.48;;;;;;;;;;5037876;28;20042;-73
2022/11/18 12:10:00;;;;;;;17.52;9.70;;;;;;;;;;5038609;28;20316;-74
2022/11/18 12:12:35;;;;;;;19.77;8.88;;;;;;;;;;5039669;28;20030;-75
2022/11/18 12:15:01;;;;;;;;;;;;;;;;;;5036987;28;20033;-72
2022/11/18 12:17:33;;;;;;;16.58;8.85;;;;;;;;;;5036090;28;19924;-73
2022/11/18 12:19:59;;;;;;;16.50;8.85;;;;;;;;;;5036741;28;20115;-75
2022/11/18 12:22:45;;;;;;;15.35;8.40;;;;;;;;;;5036072;28;20021;-74
2022/11/18 12:25:30;;;;;;;19.08;8.57;;;;;;;;;;5033827;28;20076;-74
2022/11/18 12:27:58;;;;;;;17.27;9.07;;;;;;;;;;5034448;28;20402;-75
2022/11/18 12:30:24;;;;;;;16.73;8.38;;;;;;;;;;5035893;28;20028;-74
2022/11/18 12:32:55;;;;;;;15.80;8.77;;;;;;;;;;5034758;28;20048;-75
2022/11/18 12:35:23;;;;;;;16.08;8.45;;;;;;;;;;5034309;28;20029;-74
2022/11/18 12:37:52;;;;;;;17.05;8.32;;;;;;;;;;5035747;28;20022;-75
2022/11/18 12:40:30;;;;;;;14.70;8.50;;;;;;;;;;5035640;28;20022;-74
2022/11/18 12:45:42;;;;;;;18.15;9.27;;;;;;;;;;5047828;28;20012;-75
2022/11/18 12:48:23;;;;;;;15.43;8.88;;;;;;;;;;5041864;28;20033;-73
2022/11/18 12:50:50;;;;;;;16.92;8.50;;;;;;;;;;5038112;28;20040;-72
2022/11/18 12:53:35;;;;;;;17.88;7.68;;;;;;;;;;5033045;28;20112;-73
2022/11/18 12:56:09;;;;;;;16.45;7.68;;;;;;;;;;5032554;28;20044;-73
2022/11/18 12:58:36;;;;;;;15.93;7.13;;;;;;;;;;5040217;28;20056;-72
2022/11/18 13:01:11;;;;;;;19.60;7.78;;;;;;;;;;5043081;28;20400;-72
2022/11/18 13:03:37;;;;;;;;;;;;;;;;;;5045362;28;20033;-72
2022/11/18 13:06:12;;;;;;;16.70;7.57;;;;;;;;;;5037455;28;19904;-73
2022/11/18 13:08:39;;;;;;;14.40;6.78;;;;;;;;;;5035355;28;20034;-75
2022/11/18 13:17:50;;;;;;;14.20;6.50;;;;;;;;;;5035312;28;20081;-75
2022/11/18 13:19:24;;;;;;;13.52;6.03;;;;;;;;;;5037599;28;20390;-74
2022/11/18 13:24:43;;;;;;;13.32;6.10;;;;;;;;;;5037303;28;20114;-74
2022/11/18 13:27:15;;;;;;;12.70;5.70;;;;;;;;;;5034283;28;20576;-74
2022/11/18 13:29:55;;;;;;;13.40;6.05;;;;;;;;;;5035091;28;20029;-75
2022/11/18 13:32:22;;;;;;;11.45;5.75;;;;;;;;;;5033798;28;20030;-73
2022/11/18 13:34:52;;;;;;;14.02;6.00;;;;;;;;;;5033448;28;20052;-74
2022/11/18 13:37:22;;;;;;;11.65;5.72;;;;;;;;;;5031573;28;20033;-74
2022/11/18 13:39:49;;;;;;;10.07;5.25;;;;;;;;;;5032356;28;20395;-76
2022/11/18 13:42:17;;;;;;;9.93;5.28;;;;;;;;;;5031109;28;20053;-74
2022/11/18 13:45:02;;;;;;;11.23;5.55;;;;;;;;;;5032656;28;20028;-74
2022/11/18 13:47:27;;;;;;;;;;;;;;;;;;5033483;28;20450;-74
2022/11/18 13:49:53;;;;;;;12.55;5.55;;;;;;;;;;5032199;28;19909;-74
2022/11/18 13:52:33;;;;;;;16.00;6.90;;;;;;;;;;5032587;28;20034;-74
2022/11/18 13:55:00;;;;;;;24.75;11.65;;;;;;;;;;5032500;28;20516;-74
2022/11/18 13:57:27;;;;;;;13.32;6.45;;;;;;;;;;5031644;28;20064;-73
2022/11/18 13:59:54;;;;;;;13.50;5.72;;;;;;;;;;5034601;28;20017;-74
2022/11/18 14:02:20;;;;;;;12.10;5.65;;;;;;;;;;5036110;28;20029;-74
2022/11/18 14:04:57;;;;;;;12.70;5.63;;;;;;;;;;5036982;28;20501;-75
2022/11/18 14:07:31;;;;;;;14.65;6.70;;;;;;;;;;5036203;28;20036;-74
2022/11/18 14:10:01;;;;;;;10.57;5.40;;;;;;;;;;5036921;28;20052;-74
2022/11/18 14:12:31;;;;;;;9.48;4.95;;;;;;;;;;5036494;28;20256;-73
2022/11/18 14:15:16;;;;;;;15.43;6.28;;;;;;;;;;5037202;28;20038;-75
2022/11/18 14:17:42;;;;;;;;;;;;;;;;;;5037109;28;20493;-74
2022/11/18 14:20:13;;;;;;;10.63;5.20;;;;;;;;;;5037153;28;19988;-74
2022/11/18 14:22:41;;;;;;;12.57;5.38;;;;;;;;;;5037262;28;20033;-74
2022/11/18 14:25:18;;;;;;;10.98;5.50;;;;;;;;;;5036075;28;20105;-74
2022/11/18 14:27:44;;;;;;;8.98;4.80;;;;;;;;;;5036925;28;20109;-75
2022/11/18 14:30:27;;;;;;;10.00;4.85;;;;;;;;;;5039108;28;20052;-74
2022/11/18 14:33:23;;;;;;;12.93;6.20;;;;;;;;;;5036881;28;20548;-74
2022/11/18 14:35:59;;;;;;;11.18;5.30;;;;;;;;;;5028664;28;20038;-73
2022/11/18 14:38:37;;;;;;;11.63;4.90;;;;;;;;;;5041698;28;20048;-74
2022/11/18 14:41:05;;;;;;;10.20;5.28;;;;;;;;;;5042215;28;20101;-74
2022/11/18 14:43:31;;;;;;;12.57;5.93;;;;;;;;;;5038253;28;20477;-75
2022/11/18 14:45:59;;;;;;;9.80;5.35;;;;;;;;;;5035517;28;20460;-75
2022/11/18 14:48:25;;;;;;;15.25;6.93;;;;;;;;;;5034970;28;20112;-74
2022/11/18 14:50:51;;;;;;;11.07;5.55;;;;;;;;;;5035883;28;20545;-74
2022/11/18 14:53:17;;;;;;;10.55;5.40;;;;;;;;;;5033807;28;20064;-75
2022/11/18 14:55:44;;;;;;;13.38;5.75;;;;;;;;;;5035145;28;20478;-75